Hobby, TX

4:39 PM CST on January 29, 2015 (GMT -0600)
South Houston | Change Station
CLOSE
Current Station
Personal Weather Station
Location: South Houston, TX
Elevation: 52 ft
Nearby Weather Stations

Elev 52 ft 29.67 °N, 95.22 °W | Updated 4 seconds ago

Partly Cloudy
Partly Cloudy
82.0 °F
Feels Like 80 °F
N
3.8
Wind Variable Wind from WSW
Gusts 6.9 mph

Today
High -- | Low -- °F
--% Chance of Precip.
Yesterday
High -- | Low -- °F
Precip. -- in
7:12 AM 5:56 PM
Waxing Gibbous, 77% visible
Pressure 30.21 in
Visibility 10.0 miles
Clouds Few 4000 ft
Mostly Cloudy 25000 ft
Heat Index 80 °F
Dew Point 33 °F
Humidity 17%
Rainfall 0.01 in
Snow Depth Not available.
UV 0.0 out of 12
Pollen 7.00 out of 12
Air Quality Not available.
Flu Activity Not available.
METAR KHOU 292153Z 22007KT 10SM FEW040 BKN250 24/13 A3019 RMK AO2 SLP228 T02390128

More Conditions Fewer Conditions

Pressure 30.21 in
Visibility 10.0 miles
Clouds Few 4000 ft
Mostly Cloudy 25000 ft
Heat Index 80 °F
Dew Point 33 °F
Humidity 17%
Rainfall 0.01 in
Snow Depth Not available.
UV 0.0 out of 12
Pollen 7.00 out of 12
Air Quality Not available.
Flu Activity Not available.
METAR KHOU 292153Z 22007KT 10SM FEW040 BKN250 24/13 A3019 RMK AO2 SLP228 T02390128

More Conditions Fewer Conditions

10-Day Weather Forecast

Almanac

Astronomy

Jan. 29, 2015 Rise Set
Actual Time
Civil Twilight
Nautical Twilight
Astronomical Twilight
Moon
Length of Visible Light
Length of Day
Tomorrow will be .
, % of the Moon is Illuminated

Today's Extremes

State Highs State Lows

Community

WunderPhotos

Upload Photos

1,791,632 photos uploaded!

WunderBlogs® & News

Nearby

Air Quality

  Air Quality AQ Index Pollutant
Not available.

Snow Depth

Station Depth Elevation

Earthquake Activity

City Distance Mag. Time & Date
Minimum magnitude displayed is 2.5.

Coastal Water Temperatures

Place Temperature

Nearby Weather Stations